createdAt,value
2024-04-25T06:02:24.823Z,20.33
2024-04-25T06:02:56.694Z,20.13
2024-04-25T06:03:28.964Z,19.63
2024-04-25T06:03:59.842Z,19.83
2024-04-25T06:04:31.316Z,19.73
2024-04-25T06:05:02.613Z,19.13
2024-04-25T06:05:33.885Z,19.17
2024-04-25T06:06:05.036Z,19.27
2024-04-25T06:06:35.901Z,18.77
2024-04-25T06:07:06.695Z,18.50
2024-04-25T06:07:37.496Z,19.47
2024-04-25T06:08:08.326Z,18.73
2024-04-25T06:08:42.232Z,20.00
2024-04-25T06:09:13.052Z,21.20
2024-04-25T06:09:43.993Z,21.13
2024-04-25T06:10:14.814Z,19.37
2024-04-25T06:10:45.686Z,18.97
2024-04-25T06:11:16.943Z,19.27
2024-04-25T06:11:48.057Z,19.23
2024-04-25T06:12:21.522Z,19.00
2024-04-25T06:12:52.599Z,17.87
2024-04-25T06:13:23.507Z,17.53
2024-04-25T06:13:54.306Z,17.73
2024-04-25T06:14:27.249Z,18.20
2024-04-25T06:14:58.074Z,19.13
2024-04-25T06:15:28.895Z,19.00
2024-04-25T06:15:59.678Z,18.40
2024-04-25T06:16:30.607Z,19.13
2024-04-25T06:17:03.695Z,19.37
2024-04-25T06:17:34.617Z,18.50
2024-04-25T06:18:07.607Z,17.93
2024-04-25T06:18:38.470Z,18.57
2024-04-25T06:19:09.294Z,18.03
2024-04-25T06:19:40.144Z,18.13
2024-04-25T06:20:16.460Z,18.23
2024-04-25T06:20:47.370Z,16.73
2024-04-25T06:21:18.239Z,16.80
2024-04-25T06:21:49.034Z,16.97
2024-04-25T06:22:19.986Z,17.97
2024-04-25T06:22:50.923Z,18.70
2024-04-25T06:23:22.343Z,18.10
2024-04-25T06:23:54.235Z,16.63
2024-04-25T06:24:25.920Z,16.10
2024-04-25T06:25:00.466Z,16.97
2024-04-25T06:25:31.390Z,16.73
2024-04-25T06:26:02.240Z,16.83
2024-04-25T06:26:33.352Z,17.77
2024-04-25T06:27:04.222Z,16.30
2024-04-25T06:27:35.441Z,16.07
2024-04-25T06:28:08.406Z,16.83
2024-04-25T06:28:39.196Z,17.53
2024-04-25T06:29:10.027Z,16.23
2024-04-25T06:29:41.180Z,16.40
2024-04-25T06:30:12.213Z,16.13
2024-04-25T06:30:43.029Z,15.80
2024-04-25T06:31:13.850Z,16.23
2024-04-25T06:31:44.952Z,14.73
2024-04-25T06:32:15.838Z,15.27
2024-04-25T06:32:46.919Z,15.97
2024-04-25T06:33:18.049Z,15.83
2024-04-25T06:33:50.185Z,16.63
2024-04-25T06:34:21.010Z,15.97
2024-04-25T06:34:52.306Z,16.03
2024-04-25T06:35:23.328Z,15.30
2024-04-25T06:35:54.196Z,15.13
2024-04-25T06:36:27.934Z,15.93
2024-04-25T06:36:59.761Z,15.43
2024-04-25T06:37:30.587Z,15.87
2024-04-25T06:38:01.543Z,15.87
2024-04-25T06:38:32.406Z,15.47
2024-04-25T06:39:03.388Z,15.10
2024-04-25T06:39:34.200Z,14.87
2024-04-25T06:40:05.520Z,15.57
2024-04-25T06:40:36.543Z,16.00
2024-04-25T06:41:07.483Z,16.10
2024-04-25T06:41:46.601Z,16.20
2024-04-25T06:42:24.517Z,14.53
2024-04-25T06:42:55.322Z,16.23
2024-04-25T06:43:26.191Z,15.47
2024-04-25T06:44:02.767Z,15.67
2024-04-25T06:44:40.649Z,15.20
2024-04-25T06:45:16.471Z,15.43
2024-04-25T06:45:47.315Z,15.33
2024-04-25T06:46:18.148Z,14.93
2024-04-25T06:46:49.006Z,15.50
2024-04-25T06:47:19.913Z,15.47
2024-04-25T06:47:50.855Z,16.53
2024-04-25T06:48:22.004Z,16.57
2024-04-25T06:48:54.659Z,16.77
2024-04-25T06:49:25.832Z,15.97
2024-04-25T06:49:56.681Z,15.37
2024-04-25T06:50:27.526Z,14.70
2024-04-25T06:50:58.387Z,14.90
2024-04-25T06:51:32.235Z,15.03
2024-04-25T06:52:03.047Z,15.43
2024-04-25T06:52:33.847Z,14.93
2024-04-25T06:53:06.280Z,15.33
2024-04-25T06:53:37.185Z,15.30
2024-04-25T06:54:08.028Z,14.57
2024-04-25T06:54:38.834Z,14.70
2024-04-25T06:55:09.680Z,14.43
2024-04-25T06:55:40.479Z,14.87
2024-04-25T06:56:11.341Z,15.07
2024-04-25T06:56:42.247Z,16.10
2024-04-25T06:57:13.979Z,14.27
2024-04-25T06:57:44.831Z,14.00
2024-04-25T06:58:15.650Z,15.33
2024-04-25T06:58:46.446Z,14.70
2024-04-25T06:59:17.779Z,15.03
2024-04-25T06:59:50.450Z,14.27
2024-04-25T07:00:21.395Z,14.23
2024-04-25T07:00:52.236Z,14.07
2024-04-25T07:01:23.052Z,14.23
2024-04-25T07:01:54.367Z,14.20
2024-04-25T07:02:25.255Z,14.43
2024-04-25T07:02:56.369Z,14.47
2024-04-25T07:03:27.278Z,13.77
2024-04-25T07:03:58.176Z,14.17
2024-04-25T07:04:29.199Z,13.77
2024-04-25T07:05:00.433Z,14.00
2024-04-25T07:05:31.344Z,13.83
2024-04-25T07:06:02.316Z,13.27
2024-04-25T07:06:33.794Z,13.53
2024-04-25T07:07:04.616Z,13.70
2024-04-25T07:07:35.622Z,13.57
2024-04-25T07:08:07.867Z,13.87
2024-04-25T07:08:38.690Z,13.90
2024-04-25T07:09:09.533Z,13.90
2024-04-25T07:09:40.341Z,14.40
2024-04-25T07:10:13.995Z,13.80
2024-04-25T07:10:44.839Z,15.53
2024-04-25T07:11:15.802Z,16.07
2024-04-25T07:11:46.764Z,15.27
2024-04-25T07:12:17.572Z,14.37
2024-04-25T07:12:48.387Z,13.43
2024-04-25T07:13:19.178Z,14.17
2024-04-25T07:13:49.983Z,13.10
2024-04-25T07:14:25.307Z,12.90
2024-04-25T07:14:57.106Z,13.17
2024-04-25T07:15:27.975Z,13.70
2024-04-25T07:15:59.792Z,13.40
2024-04-25T07:16:30.688Z,14.53
2024-04-25T07:17:01.582Z,14.23
2024-04-25T07:17:36.008Z,13.00
2024-04-25T07:18:07.630Z,13.40
2024-04-25T07:18:38.628Z,12.30
2024-04-25T07:19:09.865Z,14.17
2024-04-25T07:19:40.787Z,13.67
2024-04-25T07:20:11.662Z,13.00
2024-04-25T07:20:45.519Z,13.77
2024-04-25T07:21:16.371Z,13.63
2024-04-25T07:21:47.230Z,13.57
2024-04-25T07:22:18.566Z,12.93
2024-04-25T07:22:49.507Z,13.43
2024-04-25T07:23:20.553Z,14.17
2024-04-25T07:23:51.377Z,14.20
2024-04-25T07:24:22.194Z,14.13
2024-04-25T07:24:53.082Z,14.10
2024-04-25T07:25:25.290Z,13.63
2024-04-25T07:25:57.798Z,14.03
2024-04-25T07:26:28.654Z,13.20
2024-04-25T07:26:59.481Z,13.47
2024-04-25T07:27:35.531Z,13.33
2024-04-25T07:28:09.104Z,13.43
2024-04-25T07:28:42.832Z,13.43
2024-04-25T07:29:15.329Z,13.87
2024-04-25T07:29:47.300Z,13.43
2024-04-25T07:30:18.134Z,13.27
2024-04-25T07:30:48.932Z,13.53
2024-04-25T07:31:19.760Z,12.87
2024-04-25T07:31:50.560Z,13.20
2024-04-25T07:32:21.435Z,12.93
2024-04-25T07:32:54.645Z,12.93
2024-04-25T07:33:25.735Z,14.37
2024-04-25T07:33:56.847Z,14.30
2024-04-25T07:34:27.883Z,14.87
2024-04-25T07:34:58.692Z,14.03
2024-04-25T07:35:31.698Z,13.03
2024-04-25T07:36:02.698Z,13.53
2024-04-25T07:36:35.693Z,13.67
2024-04-25T07:37:06.497Z,12.70
2024-04-25T07:37:37.982Z,12.97
2024-04-25T07:38:12.396Z,13.53
2024-04-25T07:38:43.328Z,13.47
2024-04-25T07:39:15.110Z,13.83
2024-04-25T07:39:47.571Z,14.23
2024-04-25T07:40:19.215Z,14.30
2024-04-25T07:40:50.028Z,13.40
2024-04-25T07:41:21.011Z,13.90
2024-04-25T07:41:51.859Z,13.70
2024-04-25T07:42:22.652Z,13.83
2024-04-25T07:42:53.786Z,12.43
2024-04-25T07:43:24.759Z,14.10
2024-04-25T07:43:55.672Z,13.60
2024-04-25T07:44:26.690Z,13.77
2024-04-25T07:44:57.974Z,14.30
2024-04-25T07:45:29.008Z,13.43
2024-04-25T07:46:00.027Z,13.20
2024-04-25T07:46:30.902Z,13.13
2024-04-25T07:47:04.202Z,12.87
2024-04-25T07:47:36.320Z,13.20
2024-04-25T07:48:07.564Z,13.10
2024-04-25T07:48:41.644Z,12.53
2024-04-25T07:49:15.989Z,13.37
2024-04-25T07:49:46.832Z,13.10
2024-04-25T07:50:18.871Z,13.13
2024-04-25T07:50:49.745Z,13.93
2024-04-25T07:51:20.666Z,13.50
2024-04-25T07:51:51.457Z,13.60
2024-04-25T07:52:25.093Z,13.70
2024-04-25T07:52:57.345Z,14.73
2024-04-25T07:53:28.144Z,15.20
2024-04-25T07:53:58.952Z,14.93
2024-04-25T07:54:29.747Z,15.10
2024-04-25T07:55:00.652Z,15.53
2024-04-25T07:55:31.473Z,14.37
2024-04-25T07:56:02.340Z,14.20
2024-04-25T07:56:33.172Z,13.33
2024-04-25T07:57:03.967Z,13.70
2024-04-25T07:57:34.973Z,14.00
2024-04-25T07:58:05.788Z,14.87
2024-04-25T07:58:37.005Z,14.63
2024-04-25T07:59:09.137Z,14.00
2024-04-25T07:59:40.170Z,13.77
2024-04-25T08:00:11.313Z,14.47
2024-04-25T08:00:42.149Z,14.23
2024-04-25T08:01:16.633Z,14.47
2024-04-25T08:01:47.478Z,15.23
2024-04-25T08:02:18.440Z,15.97
2024-04-25T08:02:53.849Z,15.63
2024-04-25T08:03:27.303Z,15.20
2024-04-25T08:03:58.505Z,14.63
2024-04-25T08:04:29.315Z,14.37
2024-04-25T08:05:00.232Z,14.17
2024-04-25T08:05:34.349Z,14.30
2024-04-25T08:06:05.147Z,15.40
2024-04-25T08:06:36.105Z,14.33
2024-04-25T08:07:06.926Z,14.30
2024-04-25T08:07:37.808Z,14.53
2024-04-25T08:08:08.613Z,14.60
2024-04-25T08:08:39.544Z,14.40
2024-04-25T08:09:10.377Z,14.07
2024-04-25T08:09:41.175Z,13.83
2024-04-25T08:10:14.167Z,13.80
2024-04-25T08:10:46.632Z,14.60
2024-04-25T08:11:17.676Z,14.53
2024-04-25T08:11:48.665Z,14.97
2024-04-25T08:12:20.459Z,15.10
2024-04-25T08:12:51.242Z,14.87
2024-04-25T08:13:22.146Z,14.93
2024-04-25T08:13:53.002Z,14.20
2024-04-25T08:14:23.852Z,14.50
2024-04-25T08:14:54.734Z,14.20
2024-04-25T08:15:25.538Z,14.13
2024-04-25T08:15:56.351Z,15.10
2024-04-25T08:16:27.343Z,14.13
2024-04-25T08:17:00.795Z,14.00
2024-04-25T08:17:32.742Z,14.53
2024-04-25T08:18:04.625Z,14.93
2024-04-25T08:18:35.547Z,14.33
2024-04-25T08:19:06.766Z,15.03
2024-04-25T08:19:37.555Z,14.47
2024-04-25T08:20:08.685Z,14.50
2024-04-25T08:20:39.570Z,13.87
2024-04-25T08:21:10.401Z,13.33
2024-04-25T08:21:41.209Z,12.60
2024-04-25T08:22:12.005Z,13.47
2024-04-25T08:22:50.109Z,13.60
2024-04-25T08:23:20.924Z,13.47
2024-04-25T08:23:51.783Z,14.23
2024-04-25T08:24:24.328Z,14.10
2024-04-25T08:24:55.263Z,14.63
2024-04-25T08:25:27.129Z,14.37
2024-04-25T08:25:57.934Z,14.10
2024-04-25T08:26:28.801Z,14.23
2024-04-25T08:26:59.634Z,14.43
2024-04-25T08:27:30.484Z,14.10
2024-04-25T08:28:01.301Z,13.53
2024-04-25T08:28:32.526Z,13.83
2024-04-25T08:29:03.329Z,14.80
2024-04-25T08:29:34.142Z,14.00
2024-04-25T08:30:05.549Z,13.67
2024-04-25T08:30:36.338Z,14.40
2024-04-25T08:31:09.826Z,14.50
2024-04-25T09:33:05.051Z,10.23
2024-04-25T09:33:36.071Z,10.10
2024-04-25T09:34:07.434Z,10.27
2024-04-25T09:34:38.324Z,10.43
2024-04-25T09:35:11.932Z,10.27
2024-04-25T09:35:42.974Z,10.90
2024-04-25T09:36:13.913Z,10.40
2024-04-25T09:36:44.697Z,10.07
2024-04-25T09:37:16.226Z,10.43
2024-04-25T09:37:47.127Z,10.40
2024-04-25T09:38:17.951Z,10.33
2024-04-25T09:38:51.919Z,11.00
2024-04-25T09:39:22.761Z,11.27
2024-04-25T09:39:58.251Z,11.03
2024-04-25T09:40:31.962Z,10.70
2024-04-25T09:41:02.744Z,10.83
2024-04-25T09:41:37.515Z,9.97
2024-04-25T09:42:11.994Z,9.80
2024-04-25T09:42:42.818Z,10.10
2024-04-25T09:43:13.611Z,9.63
2024-04-25T09:43:44.410Z,10.13
2024-04-25T09:44:15.288Z,10.07
2024-04-25T09:44:46.263Z,10.43
2024-04-25T09:45:17.083Z,9.90
2024-04-25T09:45:47.904Z,9.07
2024-04-25T09:46:22.524Z,10.00
2024-04-25T09:47:00.414Z,10.47
2024-04-25T09:47:52.646Z,10.17
2024-04-25T09:48:23.605Z,10.70
2024-04-25T09:48:54.449Z,10.93
2024-04-25T09:49:38.224Z,11.00
2024-04-25T09:50:11.623Z,11.17
2024-04-25T09:50:54.116Z,10.83
2024-04-25T09:51:33.498Z,10.77
2024-04-25T09:52:08.264Z,9.77
2024-04-25T09:52:45.578Z,10.00
2024-04-25T09:53:38.531Z,11.00
2024-04-25T09:54:14.677Z,9.80
2024-04-25T09:54:46.776Z,10.27
2024-04-25T09:55:17.573Z,9.97
2024-04-25T09:55:48.695Z,9.60
2024-04-25T09:56:20.062Z,9.50
2024-04-25T09:56:54.265Z,9.40
2024-04-25T09:57:25.073Z,9.13
2024-04-25T09:57:55.871Z,8.87
2024-04-25T09:58:45.290Z,9.37
2024-04-25T09:59:26.320Z,9.20
2024-04-25T10:00:04.787Z,8.73
2024-04-25T10:00:39.308Z,9.40
2024-04-25T10:01:10.185Z,9.30
2024-04-25T10:01:41.010Z,9.57
2024-04-25T10:02:15.832Z,9.23
2024-04-25T10:02:48.160Z,9.07
2024-04-25T10:03:19.006Z,8.83
2024-04-25T10:03:49.851Z,8.43
2024-04-25T10:04:20.808Z,9.30
2024-04-25T10:04:51.797Z,9.63
2024-04-25T10:05:22.638Z,9.53
2024-04-25T10:05:53.926Z,9.30
2024-04-25T10:06:24.747Z,9.77
2024-04-25T10:06:55.530Z,9.60
2024-04-25T10:07:26.321Z,9.77
2024-04-25T10:07:57.271Z,10.03
2024-04-25T10:08:28.079Z,9.87
2024-04-25T10:08:59.078Z,9.80
2024-04-25T10:09:29.914Z,9.50
2024-04-25T10:10:00.807Z,8.80
2024-04-25T10:10:31.585Z,8.27
2024-04-25T10:11:04.805Z,8.60
2024-04-25T10:11:38.155Z,7.93
2024-04-25T10:12:09.258Z,8.73
2024-04-25T10:12:40.089Z,9.37
2024-04-25T10:13:32.186Z,9.40
2024-04-25T10:14:03.009Z,8.53
2024-04-25T10:14:33.846Z,8.97
2024-04-25T10:15:05.457Z,8.77
2024-04-25T10:15:36.526Z,9.33
2024-04-25T10:16:07.317Z,9.30
2024-04-25T10:16:38.398Z,9.27
2024-04-25T10:17:09.196Z,9.20
2024-04-25T10:17:40.184Z,8.93
2024-04-25T10:18:11.850Z,8.07
2024-04-25T10:18:49.535Z,8.20
2024-04-25T10:19:20.588Z,7.87
2024-04-25T10:19:51.468Z,7.83
2024-04-25T10:20:22.377Z,7.83
2024-04-25T10:20:59.831Z,7.97
2024-04-25T10:21:30.646Z,7.80
2024-04-25T10:22:01.531Z,7.77
2024-04-25T10:22:34.553Z,8.40
2024-04-25T10:23:07.639Z,7.47
2024-04-25T10:23:38.452Z,7.03
2024-04-25T10:24:10.266Z,7.93
2024-04-25T10:24:42.875Z,8.00
2024-04-25T10:25:15.150Z,8.47
2024-04-25T10:25:54.390Z,8.00
2024-04-25T10:26:25.469Z,7.13
2024-04-25T10:26:56.315Z,7.73
2024-04-25T10:27:27.764Z,7.40
2024-04-25T10:28:02.794Z,7.80
2024-04-25T10:28:33.575Z,7.10
2024-04-25T10:29:05.965Z,6.80
2024-04-25T10:29:39.877Z,6.23
2024-04-25T10:30:10.686Z,6.77
2024-04-25T10:30:41.498Z,7.47
2024-04-25T10:31:12.285Z,8.63
2024-04-25T10:31:43.168Z,8.03
2024-04-25T10:32:14.104Z,7.20
2024-04-25T10:32:45.126Z,7.73
2024-04-25T10:33:16.080Z,7.73
2024-04-25T10:33:46.975Z,7.63
2024-04-25T10:34:17.823Z,7.73
2024-04-25T10:34:49.153Z,7.97
2024-04-25T10:35:20.119Z,8.13
2024-04-25T10:35:53.450Z,8.63
2024-04-25T10:36:27.369Z,7.90
2024-04-25T10:36:58.154Z,6.93
2024-04-25T10:37:31.032Z,6.90
2024-04-25T10:38:01.853Z,7.43
2024-04-25T10:38:32.741Z,7.23
2024-04-25T10:39:08.131Z,7.60
2024-04-25T10:39:43.291Z,7.50
2024-04-25T10:40:14.285Z,7.40
2024-04-25T10:40:45.084Z,8.33
2024-04-25T10:41:15.900Z,7.40
2024-04-25T10:41:47.790Z,6.97
2024-04-25T10:42:20.748Z,6.97
2024-04-25T10:43:04.586Z,6.73
2024-04-25T10:43:46.121Z,6.60
2024-04-25T10:44:17.013Z,6.63
2024-04-25T10:44:50.246Z,7.23
2024-04-25T10:45:23.116Z,7.03
2024-04-25T10:45:53.901Z,7.20
2024-04-25T10:46:24.722Z,7.17
2024-04-25T10:46:55.511Z,6.97
2024-04-25T10:47:26.510Z,6.97
2024-04-25T10:47:58.156Z,7.07
2024-04-25T10:48:29.093Z,6.97
2024-04-25T10:49:03.807Z,7.17
2024-04-25T10:49:35.172Z,6.73
2024-04-25T10:50:06.900Z,7.00
2024-04-25T10:50:37.900Z,6.33
2024-04-25T10:51:08.789Z,6.67
2024-04-25T10:51:40.852Z,6.83
2024-04-25T10:52:12.034Z,6.27
2024-04-25T10:52:42.987Z,5.80
2024-04-25T10:53:13.779Z,6.07
2024-04-25T10:53:44.799Z,6.23
2024-04-25T10:54:15.627Z,6.33
2024-04-25T10:54:46.455Z,6.37
2024-04-25T10:55:17.408Z,5.43
2024-04-25T10:55:48.219Z,6.30
2024-04-25T10:56:19.029Z,5.93
2024-04-25T10:56:50.161Z,5.57
2024-04-25T10:57:21.028Z,5.80
2024-04-25T10:57:52.563Z,5.73
2024-04-25T10:58:23.350Z,5.43
2024-04-25T10:59:12.629Z,5.00
2024-04-25T10:59:46.418Z,4.57
2024-04-25T11:00:17.236Z,5.00
2024-04-25T11:00:48.075Z,5.27
2024-04-25T11:01:22.776Z,5.53
2024-04-25T11:01:58.405Z,5.60
2024-04-25T11:02:35.347Z,5.40
2024-04-25T11:03:11.905Z,5.00
2024-04-25T11:03:54.757Z,4.97
2024-04-25T11:04:35.515Z,5.13
2024-04-25T11:05:06.430Z,4.97
2024-04-25T11:05:40.592Z,4.73
2024-04-25T11:06:11.439Z,4.60
2024-04-25T11:06:42.221Z,4.57
2024-04-25T11:07:13.069Z,4.50
2024-04-25T11:07:43.858Z,4.53
2024-04-25T11:08:15.506Z,4.43
2024-04-25T11:08:46.971Z,4.83
2024-04-25T11:09:18.890Z,4.47
2024-04-25T11:09:49.794Z,4.40
2024-04-25T11:10:20.581Z,4.43
2024-04-25T11:10:51.364Z,4.67
2024-04-25T11:11:22.367Z,4.37
2024-04-25T11:11:53.691Z,4.20
2024-04-25T11:12:25.444Z,4.63
2024-04-25T11:12:57.246Z,4.90
2024-04-25T11:13:28.025Z,5.00
2024-04-25T11:13:58.838Z,5.13
2024-04-25T11:14:29.682Z,5.23
2024-04-25T11:15:00.655Z,4.90
2024-04-25T11:15:31.517Z,4.27
2024-04-25T11:16:02.311Z,4.53
2024-04-25T11:16:39.896Z,4.77
2024-04-25T11:17:13.355Z,5.67
2024-04-25T11:17:56.106Z,5.07
2024-04-25T11:18:34.616Z,4.43
2024-04-25T11:19:13.691Z,4.53
2024-04-25T11:19:50.011Z,4.57
2024-04-25T11:20:21.919Z,4.43
2024-04-25T11:20:52.960Z,4.13
2024-04-25T11:21:24.065Z,4.47
2024-04-25T11:21:55.113Z,4.03
2024-04-25T11:22:35.594Z,3.63
2024-04-25T11:23:17.626Z,3.97
2024-04-25T11:23:49.076Z,4.43
2024-04-25T11:24:21.882Z,4.40
2024-04-25T11:24:52.798Z,4.07
2024-04-25T11:25:23.582Z,4.07
2024-04-25T11:25:54.487Z,4.20
2024-04-25T11:26:25.511Z,4.57
2024-04-25T11:26:58.577Z,4.47
2024-04-25T11:27:31.381Z,4.60
2024-04-25T11:28:02.172Z,4.63
2024-04-25T11:28:32.950Z,4.00
2024-04-25T11:29:03.743Z,4.27
2024-04-25T11:29:36.987Z,4.17
2024-04-25T11:30:07.907Z,4.23
2024-04-25T11:30:39.007Z,4.57
2024-04-25T11:31:09.927Z,5.07
2024-04-25T11:31:40.728Z,5.00
2024-04-25T11:32:11.604Z,4.37
2024-04-25T11:32:45.903Z,4.10
2024-04-25T11:33:23.406Z,4.80
2024-04-25T11:33:54.375Z,4.83
2024-04-25T11:34:25.407Z,4.80
2024-04-25T11:35:05.972Z,4.53
2024-04-25T11:35:36.770Z,4.63
2024-04-25T11:36:07.605Z,4.60
2024-04-25T11:36:38.395Z,4.80
2024-04-25T11:37:09.196Z,4.57
2024-04-25T11:37:40.439Z,4.40
2024-04-25T11:38:11.996Z,4.63
2024-04-25T11:38:42.875Z,4.43
2024-04-25T11:39:17.624Z,4.13
2024-04-25T11:39:53.898Z,4.00
2024-04-25T11:40:31.232Z,3.83
2024-04-25T11:41:02.034Z,4.50
2024-04-25T11:41:32.843Z,4.40
2024-04-25T11:42:09.195Z,4.27
2024-04-25T11:42:40.076Z,4.17
2024-04-25T11:43:14.357Z,4.03
2024-04-25T11:43:45.358Z,3.87
2024-04-25T11:44:16.223Z,4.23
2024-04-25T11:44:47.272Z,4.03
2024-04-25T11:45:18.210Z,4.43
2024-04-25T11:45:51.982Z,4.40
2024-04-25T11:46:22.805Z,4.13
2024-04-25T11:46:56.951Z,4.23
2024-04-25T11:47:27.875Z,4.07
2024-04-25T11:47:59.145Z,3.70
2024-04-25T11:48:31.359Z,3.67
2024-04-25T11:49:03.973Z,4.00
2024-04-25T11:49:34.865Z,3.23
2024-04-25T11:50:06.845Z,3.60
2024-04-25T11:50:38.379Z,3.77
2024-04-25T11:51:09.222Z,3.70
2024-04-25T11:51:40.051Z,3.73
2024-04-25T11:52:12.228Z,3.43
2024-04-25T11:52:43.209Z,3.53
2024-04-25T11:53:14.050Z,4.10
2024-04-25T11:53:44.999Z,4.10
2024-04-25T11:54:16.347Z,4.13
2024-04-25T11:54:47.167Z,3.40
2024-04-25T11:55:17.984Z,3.67
2024-04-25T11:55:48.784Z,3.33
2024-04-25T11:56:19.681Z,3.87
2024-04-25T11:56:50.688Z,3.67
2024-04-25T11:57:21.563Z,3.73
2024-04-25T11:57:52.359Z,4.07
2024-04-25T11:58:25.351Z,3.97
2024-04-25T11:58:58.669Z,3.60
2024-04-25T11:59:31.766Z,3.63
2024-04-25T12:00:11.667Z,3.80
2024-04-25T12:00:47.928Z,4.97
2024-04-25T12:01:18.787Z,4.93
2024-04-25T12:01:53.738Z,3.73
2024-04-25T12:02:25.942Z,3.33
2024-04-25T12:02:56.824Z,2.93
2024-04-25T12:03:27.755Z,3.33
2024-04-25T12:03:58.564Z,3.07
2024-04-25T12:04:29.374Z,3.37
2024-04-25T12:05:00.340Z,3.20
2024-04-25T12:05:32.164Z,3.83
2024-04-25T12:06:03.022Z,3.13
2024-04-25T12:06:33.796Z,3.57
2024-04-25T12:07:04.608Z,3.53
2024-04-25T12:07:35.419Z,3.53
2024-04-25T12:08:06.974Z,3.47
2024-04-25T12:08:38.510Z,3.00
2024-04-25T12:09:09.300Z,2.93
2024-04-25T12:09:40.206Z,3.03
2024-04-25T12:10:11.077Z,3.43
2024-04-25T12:10:42.227Z,3.60
2024-04-25T12:11:13.180Z,3.53
2024-04-25T12:11:47.911Z,3.77
2024-04-25T12:12:21.849Z,3.87
2024-04-25T12:12:52.739Z,3.73
2024-04-25T12:13:23.554Z,3.57
2024-04-25T12:13:54.345Z,3.67
2024-04-25T12:14:25.184Z,3.17
2024-04-25T12:14:56.020Z,3.07
2024-04-25T12:15:26.841Z,2.97
2024-04-25T12:15:57.663Z,3.03
2024-04-25T12:16:28.459Z,3.50
2024-04-25T12:16:59.313Z,3.43
2024-04-25T12:17:33.029Z,3.27
2024-04-25T12:18:08.189Z,3.07
2024-04-25T12:18:39.049Z,4.13
2024-04-25T12:19:09.881Z,6.80
2024-04-25T12:19:40.700Z,9.30
2024-04-25T12:20:11.674Z,5.03
2024-04-25T12:20:42.586Z,4.20
2024-04-25T12:21:13.517Z,3.67
2024-04-25T12:21:45.615Z,3.27
2024-04-25T12:22:16.919Z,3.20
2024-04-25T12:22:47.715Z,3.20
2024-04-25T12:23:18.515Z,3.00
2024-04-25T12:23:49.386Z,3.10
2024-04-25T12:24:20.258Z,3.67
2024-04-25T12:24:51.036Z,3.23
2024-04-25T12:25:21.821Z,3.37
2024-04-25T12:25:54.596Z,3.40
2024-04-25T12:26:25.420Z,3.53
2024-04-25T12:26:56.325Z,3.53
2024-04-25T12:27:27.223Z,3.53
2024-04-25T12:27:58.004Z,3.17
2024-04-25T12:28:32.659Z,3.10
2024-04-25T12:29:05.106Z,2.63
2024-04-25T12:29:35.936Z,2.87
2024-04-25T12:30:07.024Z,3.13
2024-04-25T12:30:38.747Z,2.60
2024-04-25T12:31:10.432Z,2.30
2024-04-25T12:31:42.587Z,2.57
2024-04-25T12:32:15.880Z,2.57
2024-04-25T12:32:46.986Z,2.80
2024-04-25T12:33:18.239Z,2.70
2024-04-25T12:33:51.297Z,2.30
2024-04-25T12:34:23.793Z,2.30
2024-04-25T12:34:54.688Z,2.23
2024-04-25T12:35:25.528Z,2.40
2024-04-25T12:35:56.398Z,2.50
2024-04-25T12:36:30.177Z,3.03
2024-04-25T12:37:01.015Z,2.40
2024-04-25T12:37:31.830Z,2.47
2024-04-25T12:38:06.113Z,2.10
2024-04-25T12:38:36.951Z,2.10
2024-04-25T12:39:07.772Z,2.43
2024-04-25T12:39:41.942Z,2.33
2024-04-25T12:40:12.787Z,2.33
2024-04-25T12:40:43.584Z,2.57
2024-04-25T12:41:14.499Z,2.33
2024-04-25T12:41:46.987Z,2.70
2024-04-25T12:42:22.487Z,2.50
2024-04-25T12:42:53.403Z,2.23
2024-04-25T12:43:24.304Z,2.17
2024-04-25T12:43:55.853Z,2.43
2024-04-25T12:44:30.903Z,2.40
2024-04-25T12:45:02.029Z,3.00
2024-04-25T12:45:34.692Z,2.57
2024-04-25T12:46:05.588Z,2.50
2024-04-25T12:46:36.499Z,2.23
2024-04-25T12:47:07.401Z,2.30
2024-04-25T12:47:38.370Z,2.37
2024-04-25T12:48:10.041Z,2.20
2024-04-25T12:48:41.142Z,2.30
2024-04-25T12:49:32.807Z,2.17
2024-04-25T12:50:03.917Z,2.10
2024-04-25T12:50:34.727Z,1.73
2024-04-25T12:51:05.578Z,1.87
2024-04-25T12:51:36.645Z,2.37
2024-04-25T12:52:07.563Z,1.80
2024-04-25T12:52:38.363Z,1.87
2024-04-25T12:53:11.957Z,2.17
2024-04-25T12:53:42.842Z,2.10
2024-04-25T12:54:13.633Z,1.97
2024-04-25T12:54:44.414Z,1.87
2024-04-25T12:55:15.256Z,1.77
2024-04-25T12:55:46.590Z,2.20
2024-04-25T12:56:18.526Z,2.30
2024-04-25T12:56:49.383Z,2.10
2024-04-25T12:57:24.786Z,2.17
2024-04-25T12:57:57.162Z,2.20
2024-04-25T12:58:27.985Z,2.27
2024-04-25T12:59:01.057Z,2.50
2024-04-25T12:59:32.173Z,2.23
2024-04-25T13:00:03.205Z,2.50
2024-04-25T13:00:34.057Z,2.63
2024-04-25T13:01:04.946Z,2.43
2024-04-25T13:01:35.920Z,2.17
2024-04-25T13:02:06.774Z,2.23
2024-04-25T13:02:37.694Z,1.97
2024-04-25T13:03:11.200Z,2.47
2024-04-25T13:03:42.602Z,2.17
2024-04-25T13:04:13.449Z,2.20
2024-04-25T13:04:47.457Z,2.53
2024-04-25T13:05:18.429Z,2.67
2024-04-25T13:05:49.373Z,2.73
2024-04-25T13:06:20.291Z,2.23
2024-04-25T13:06:51.188Z,2.47
2024-04-25T13:07:21.975Z,2.00
2024-04-25T13:07:52.786Z,2.13
2024-04-25T13:08:23.639Z,2.00
2024-04-25T13:08:54.515Z,1.90
2024-04-25T13:09:28.415Z,2.23
2024-04-25T13:10:00.514Z,2.37
2024-04-25T13:10:31.313Z,2.10
2024-04-25T13:11:02.140Z,2.37
2024-04-25T13:11:33.269Z,2.50
2024-04-25T13:12:04.154Z,2.67
2024-04-25T13:12:34.952Z,2.73
2024-04-25T13:13:05.766Z,2.43
2024-04-25T13:13:36.585Z,2.43
2024-04-25T13:14:07.379Z,2.63
2024-04-25T13:14:38.257Z,2.53
2024-04-25T13:15:09.134Z,2.73
2024-04-25T13:15:39.923Z,2.80
2024-04-25T13:16:10.746Z,2.70
2024-04-25T13:16:41.561Z,2.63
2024-04-25T13:17:12.403Z,2.70
2024-04-25T13:17:43.333Z,2.57
2024-04-25T13:18:16.995Z,2.60
2024-04-25T13:18:48.290Z,2.73
2024-04-25T13:19:19.418Z,2.57
2024-04-25T13:19:50.483Z,2.17
2024-04-25T13:20:21.397Z,2.33
2024-04-25T13:20:52.290Z,2.37
2024-04-25T13:21:23.127Z,2.33
2024-04-25T13:21:53.932Z,1.93
2024-04-25T13:22:24.743Z,1.90
2024-04-25T13:22:55.571Z,2.17
2024-04-25T13:23:26.393Z,2.37
2024-04-25T13:23:57.303Z,2.13
2024-04-25T13:24:28.111Z,2.33
2024-04-25T13:25:00.040Z,2.20
2024-04-25T13:25:33.543Z,2.50
2024-04-25T13:26:04.771Z,2.57
2024-04-25T13:26:35.765Z,2.50
2024-04-25T13:27:06.654Z,2.37
2024-04-25T13:27:37.482Z,2.40
2024-04-25T13:28:08.356Z,2.17
2024-04-25T13:28:39.138Z,2.27
2024-04-25T13:29:09.935Z,2.47
2024-04-25T13:29:43.233Z,2.43
2024-04-25T13:30:14.150Z,2.20
2024-04-25T13:30:44.975Z,2.17
2024-04-25T13:31:15.980Z,2.37
2024-04-25T13:31:46.770Z,2.20
2024-04-25T13:32:17.745Z,2.23
2024-04-25T13:32:52.094Z,2.03
2024-04-25T13:33:25.585Z,2.07
2024-04-25T13:33:56.720Z,2.03
2024-04-25T13:34:27.891Z,2.00
2024-04-25T13:34:58.898Z,2.40
2024-04-25T13:35:29.737Z,2.27
2024-04-25T13:36:00.612Z,2.17
2024-04-25T13:36:31.425Z,2.27
2024-04-25T13:37:02.250Z,2.17
2024-04-25T13:37:33.151Z,2.10
2024-04-25T13:38:09.050Z,1.93
2024-04-25T13:38:42.145Z,1.73
2024-04-25T13:39:13.564Z,1.80
2024-04-25T13:39:46.221Z,1.80
2024-04-25T13:40:17.046Z,1.67
2024-04-25T13:40:50.656Z,2.00
2024-04-25T13:41:21.774Z,2.03
2024-04-25T13:41:52.741Z,1.97
2024-04-25T13:42:40.422Z,2.20
2024-04-25T13:43:46.975Z,2.63
2024-04-25T13:44:18.192Z,2.17
2024-04-25T13:44:49.495Z,2.50
2024-04-25T13:45:20.399Z,2.57
2024-04-25T13:45:51.202Z,2.27
2024-04-25T13:46:22.002Z,2.10
2024-04-25T13:46:55.537Z,2.23
2024-04-25T13:47:26.600Z,2.37
2024-04-25T13:47:57.628Z,2.43
2024-04-25T13:48:28.558Z,2.43
2024-04-25T13:48:59.717Z,2.60
2024-04-25T13:49:30.653Z,2.90
2024-04-25T13:50:01.506Z,2.67
2024-04-25T13:50:32.332Z,2.43
2024-04-25T13:51:03.153Z,2.63
2024-04-25T13:51:36.766Z,2.33
2024-04-25T13:52:07.559Z,2.17
2024-04-25T13:52:40.173Z,2.20
2024-04-25T13:53:11.925Z,2.13
2024-04-25T13:53:42.771Z,2.30
2024-04-25T13:54:13.591Z,2.47
2024-04-25T13:54:44.391Z,2.43
2024-04-25T13:55:15.949Z,2.73
2024-04-25T13:55:49.581Z,2.90
2024-04-25T13:56:20.455Z,2.63
2024-04-25T13:56:51.380Z,2.13
2024-04-25T13:57:22.222Z,2.47
2024-04-25T13:57:53.009Z,2.37
2024-04-25T13:58:23.866Z,2.43
2024-04-25T13:58:54.652Z,2.50
2024-04-25T13:59:25.475Z,2.17
2024-04-25T13:59:56.283Z,2.27
2024-04-25T14:00:27.312Z,2.37
2024-04-25T14:00:58.403Z,2.80
2024-04-25T14:01:29.255Z,2.47
2024-04-25T14:02:00.094Z,2.17
2024-04-25T14:02:31.037Z,2.27
2024-04-25T14:03:01.893Z,2.33
2024-04-25T14:03:32.732Z,1.97
2024-04-25T14:04:03.714Z,2.23